sensor_id;sensor_type;location;lat;lon;timestamp;temperature;humidity
24217;DHT22;12356;49.386;8.688;2022-08-01T00:01:46;23.20;48.10
24217;DHT22;12356;49.386;8.688;2022-08-01T00:04:17;23.20;48.90
24217;DHT22;12356;49.386;8.688;2022-08-01T00:06:47;23.30;48.10
24217;DHT22;12356;49.386;8.688;2022-08-01T00:09:18;23.30;49.30
24217;DHT22;12356;49.386;8.688;2022-08-01T00:11:48;23.30;49.00
24217;DHT22;12356;49.386;8.688;2022-08-01T00:14:19;23.20;49.30
24217;DHT22;12356;49.386;8.688;2022-08-01T00:16:49;23.20;48.60
24217;DHT22;12356;49.386;8.688;2022-08-01T00:19:20;23.10;49.60
24217;DHT22;12356;49.386;8.688;2022-08-01T00:21:51;23.10;50.40
24217;DHT22;12356;49.386;8.688;2022-08-01T00:24:21;23.10;49.10
24217;DHT22;12356;49.386;8.688;2022-08-01T00:26:52;23.10;50.10
24217;DHT22;12356;49.386;8.688;2022-08-01T00:29:22;23.00;49.50
24217;DHT22;12356;49.386;8.688;2022-08-01T00:31:53;23.10;50.50
24217;DHT22;12356;49.386;8.688;2022-08-01T00:34:24;23.00;50.50
24217;DHT22;12356;49.386;8.688;2022-08-01T00:36:54;23.00;50.10
24217;DHT22;12356;49.386;8.688;2022-08-01T00:39:25;23.00;50.40
24217;DHT22;12356;49.386;8.688;2022-08-01T00:41:55;23.00;50.80
24217;DHT22;12356;49.386;8.688;2022-08-01T00:44:27;23.00;50.00
24217;DHT22;12356;49.386;8.688;2022-08-01T00:46:57;23.00;49.60
24217;DHT22;12356;49.386;8.688;2022-08-01T00:49:28;23.00;49.90
24217;DHT22;12356;49.386;8.688;2022-08-01T00:51:59;22.90;50.50
24217;DHT22;12356;49.386;8.688;2022-08-01T00:54:30;22.90;50.10
24217;DHT22;12356;49.386;8.688;2022-08-01T00:57:01;22.90;50.70
24217;DHT22;12356;49.386;8.688;2022-08-01T00:59:33;22.90;51.30
24217;DHT22;12356;49.386;8.688;2022-08-01T01:02:04;22.80;50.20
24217;DHT22;12356;49.386;8.688;2022-08-01T01:04:35;22.80;51.10
24217;DHT22;12356;49.386;8.688;2022-08-01T01:07:21;22.80;51.20
24217;DHT22;12356;49.386;8.688;2022-08-01T01:10:03;22.80;51.20
24217;DHT22;12356;49.386;8.688;2022-08-01T01:12:44;22.80;51.20
24217;DHT22;12356;49.386;8.688;2022-08-01T01:15:33;22.80;51.50
24217;DHT22;12356;49.386;8.688;2022-08-01T01:18:11;22.80;51.50
24217;DHT22;12356;49.386;8.688;2022-08-01T01:21:07;22.70;52.20
24217;DHT22;12356;49.386;8.688;2022-08-01T01:23:48;22.70;52.40
24217;DHT22;12356;49.386;8.688;2022-08-01T01:29:28;22.70;53.60
24217;DHT22;12356;49.386;8.688;2022-08-01T01:34:50;22.70;54.00
24217;DHT22;12356;49.386;8.688;2022-08-01T01:37:25;22.70;54.50
24217;DHT22;12356;49.386;8.688;2022-08-01T01:39:58;22.70;54.80
24217;DHT22;12356;49.386;8.688;2022-08-01T01:42:31;22.70;55.50
24217;DHT22;12356;49.386;8.688;2022-08-01T01:45:04;22.70;55.00
24217;DHT22;12356;49.386;8.688;2022-08-01T01:47:38;22.70;55.30
24217;DHT22;12356;49.386;8.688;2022-08-01T01:50:09;22.80;55.60
24217;DHT22;12356;49.386;8.688;2022-08-01T01:52:42;22.80;55.40
24217;DHT22;12356;49.386;8.688;2022-08-01T01:55:15;22.80;55.80
24217;DHT22;12356;49.386;8.688;2022-08-01T01:57:47;22.80;56.00
24217;DHT22;12356;49.386;8.688;2022-08-01T02:00:18;22.80;56.00
24217;DHT22;12356;49.386;8.688;2022-08-01T02:02:49;22.80;56.20
24217;DHT22;12356;49.386;8.688;2022-08-01T02:05:22;22.80;56.70
24217;DHT22;12356;49.386;8.688;2022-08-01T02:07:55;22.80;56.50
24217;DHT22;12356;49.386;8.688;2022-08-01T02:10:28;22.70;56.80
24217;DHT22;12356;49.386;8.688;2022-08-01T02:13:00;22.70;57.10
24217;DHT22;12356;49.386;8.688;2022-08-01T02:15:34;22.70;56.60
24217;DHT22;12356;49.386;8.688;2022-08-01T02:18:09;22.70;57.40
24217;DHT22;12356;49.386;8.688;2022-08-01T02:20:42;22.60;57.30
24217;DHT22;12356;49.386;8.688;2022-08-01T02:23:13;22.70;57.90
24217;DHT22;12356;49.386;8.688;2022-08-01T02:25:50;22.60;58.70
24217;DHT22;12356;49.386;8.688;2022-08-01T02:28:34;22.50;58.40
24217;DHT22;12356;49.386;8.688;2022-08-01T02:31:09;22.50;58.60
24217;DHT22;12356;49.386;8.688;2022-08-01T02:33:45;22.40;58.80
24217;DHT22;12356;49.386;8.688;2022-08-01T02:36:16;22.40;59.40
24217;DHT22;12356;49.386;8.688;2022-08-01T02:38:49;22.30;60.00
24217;DHT22;12356;49.386;8.688;2022-08-01T02:41:21;22.30;60.10
24217;DHT22;12356;49.386;8.688;2022-08-01T02:44:00;22.30;60.30
24217;DHT22;12356;49.386;8.688;2022-08-01T02:46:47;22.20;60.00
24217;DHT22;12356;49.386;8.688;2022-08-01T02:49:20;22.20;60.10
24217;DHT22;12356;49.386;8.688;2022-08-01T02:51:53;22.20;60.40
24217;DHT22;12356;49.386;8.688;2022-08-01T02:54:25;22.30;60.10
24217;DHT22;12356;49.386;8.688;2022-08-01T02:56:57;22.30;60.40
24217;DHT22;12356;49.386;8.688;2022-08-01T02:59:29;22.20;60.90
24217;DHT22;12356;49.386;8.688;2022-08-01T03:02:01;22.20;60.60
24217;DHT22;12356;49.386;8.688;2022-08-01T03:04:36;22.20;60.70
24217;DHT22;12356;49.386;8.688;2022-08-01T03:07:09;22.20;60.80
24217;DHT22;12356;49.386;8.688;2022-08-01T03:09:43;22.10;60.90
24217;DHT22;12356;49.386;8.688;2022-08-01T03:12:18;22.10;60.90
24217;DHT22;12356;49.386;8.688;2022-08-01T03:14:51;22.10;61.30
24217;DHT22;12356;49.386;8.688;2022-08-01T03:17:25;22.00;61.70
24217;DHT22;12356;49.386;8.688;2022-08-01T03:19:58;22.00;61.30
24217;DHT22;12356;49.386;8.688;2022-08-01T03:22:33;21.90;61.80
24217;DHT22;12356;49.386;8.688;2022-08-01T03:25:05;22.00;61.60
24217;DHT22;12356;49.386;8.688;2022-08-01T03:27:37;22.00;61.90
24217;DHT22;12356;49.386;8.688;2022-08-01T03:30:08;21.90;61.90
24217;DHT22;12356;49.386;8.688;2022-08-01T03:32:41;21.90;62.10
24217;DHT22;12356;49.386;8.688;2022-08-01T03:35:11;21.90;61.80
24217;DHT22;12356;49.386;8.688;2022-08-01T03:37:47;21.90;62.20
24217;DHT22;12356;49.386;8.688;2022-08-01T03:40:31;22.00;61.80
24217;DHT22;12356;49.386;8.688;2022-08-01T03:43:07;21.90;62.30
24217;DHT22;12356;49.386;8.688;2022-08-01T03:45:41;21.90;62.20
24217;DHT22;12356;49.386;8.688;2022-08-01T03:48:16;21.90;62.20
24217;DHT22;12356;49.386;8.688;2022-08-01T03:50:50;21.90;62.30
24217;DHT22;12356;49.386;8.688;2022-08-01T03:53:24;21.90;62.30
24217;DHT22;12356;49.386;8.688;2022-08-01T03:55:56;21.90;62.50
24217;DHT22;12356;49.386;8.688;2022-08-01T03:58:29;21.80;62.90
24217;DHT22;12356;49.386;8.688;2022-08-01T04:01:00;21.80;62.70
24217;DHT22;12356;49.386;8.688;2022-08-01T04:03:32;21.80;62.80
24217;DHT22;12356;49.386;8.688;2022-08-01T04:06:04;21.80;63.00
24217;DHT22;12356;49.386;8.688;2022-08-01T04:08:36;21.80;62.70
24217;DHT22;12356;49.386;8.688;2022-08-01T04:11:08;21.80;63.50
24217;DHT22;12356;49.386;8.688;2022-08-01T04:13:39;21.80;63.70
24217;DHT22;12356;49.386;8.688;2022-08-01T04:16:10;21.70;63.60
24217;DHT22;12356;49.386;8.688;2022-08-01T04:18:40;21.70;63.60
24217;DHT22;12356;49.386;8.688;2022-08-01T04:21:11;21.70;63.60
24217;DHT22;12356;49.386;8.688;2022-08-01T04:23:42;21.70;63.70
24217;DHT22;12356;49.386;8.688;2022-08-01T04:26:13;21.70;63.60
24217;DHT22;12356;49.386;8.688;2022-08-01T04:28:45;21.70;64.20
24217;DHT22;12356;49.386;8.688;2022-08-01T04:31:16;21.70;64.20
24217;DHT22;12356;49.386;8.688;2022-08-01T04:33:48;21.70;63.60
24217;DHT22;12356;49.386;8.688;2022-08-01T04:36:20;21.70;64.30
24217;DHT22;12356;49.386;8.688;2022-08-01T04:38:55;21.70;64.40
24217;DHT22;12356;49.386;8.688;2022-08-01T04:41:26;21.80;64.40
24217;DHT22;12356;49.386;8.688;2022-08-01T04:43:57;21.70;64.50
24217;DHT22;12356;49.386;8.688;2022-08-01T04:46:29;21.80;64.20
24217;DHT22;12356;49.386;8.688;2022-08-01T04:49:00;21.80;64.20
24217;DHT22;12356;49.386;8.688;2022-08-01T04:51:31;21.80;64.40
24217;DHT22;12356;49.386;8.688;2022-08-01T04:54:02;21.80;64.40
24217;DHT22;12356;49.386;8.688;2022-08-01T04:56:32;21.80;64.30
24217;DHT22;12356;49.386;8.688;2022-08-01T04:59:04;21.80;64.90
24217;DHT22;12356;49.386;8.688;2022-08-01T05:01:53;21.90;64.40
24217;DHT22;12356;49.386;8.688;2022-08-01T05:04:23;21.90;64.90
24217;DHT22;12356;49.386;8.688;2022-08-01T05:06:54;21.90;65.20
24217;DHT22;12356;49.386;8.688;2022-08-01T05:09:25;21.90;65.20
24217;DHT22;12356;49.386;8.688;2022-08-01T05:11:55;21.90;65.40
24217;DHT22;12356;49.386;8.688;2022-08-01T05:14:28;21.90;64.60
24217;DHT22;12356;49.386;8.688;2022-08-01T05:17:02;22.00;64.50
24217;DHT22;12356;49.386;8.688;2022-08-01T05:19:34;22.00;64.80
24217;DHT22;12356;49.386;8.688;2022-08-01T05:22:06;22.10;64.30
24217;DHT22;12356;49.386;8.688;2022-08-01T05:24:37;22.10;63.60
24217;DHT22;12356;49.386;8.688;2022-08-01T05:27:08;22.10;64.00
24217;DHT22;12356;49.386;8.688;2022-08-01T05:29:39;22.10;64.00
24217;DHT22;12356;49.386;8.688;2022-08-01T05:32:09;22.10;63.30
24217;DHT22;12356;49.386;8.688;2022-08-01T05:34:40;22.20;63.40
24217;DHT22;12356;49.386;8.688;2022-08-01T05:37:10;22.20;63.10
24217;DHT22;12356;49.386;8.688;2022-08-01T05:39:41;22.20;64.10
24217;DHT22;12356;49.386;8.688;2022-08-01T05:42:11;22.20;63.50
24217;DHT22;12356;49.386;8.688;2022-08-01T05:44:42;22.30;63.40
24217;DHT22;12356;49.386;8.688;2022-08-01T05:47:13;22.30;62.90
24217;DHT22;12356;49.386;8.688;2022-08-01T05:49:44;22.30;62.40
24217;DHT22;12356;49.386;8.688;2022-08-01T05:52:15;22.40;62.30
24217;DHT22;12356;49.386;8.688;2022-08-01T05:54:46;22.40;62.30
24217;DHT22;12356;49.386;8.688;2022-08-01T05:57:16;22.40;62.50
24217;DHT22;12356;49.386;8.688;2022-08-01T05:59:47;22.40;62.50
24217;DHT22;12356;49.386;8.688;2022-08-01T06:02:17;22.30;62.60
24217;DHT22;12356;49.386;8.688;2022-08-01T06:04:48;22.40;62.30
24217;DHT22;12356;49.386;8.688;2022-08-01T06:07:18;22.40;62.40
24217;DHT22;12356;49.386;8.688;2022-08-01T06:09:49;22.40;62.10
24217;DHT22;12356;49.386;8.688;2022-08-01T06:12:19;22.50;61.90
24217;DHT22;12356;49.386;8.688;2022-08-01T06:14:50;22.50;62.30
24217;DHT22;12356;49.386;8.688;2022-08-01T06:17:20;22.60;62.70
24217;DHT22;12356;49.386;8.688;2022-08-01T06:21:04;22.60;61.80
24217;DHT22;12356;49.386;8.688;2022-08-01T06:23:35;22.60;62.40
24217;DHT22;12356;49.386;8.688;2022-08-01T06:26:05;22.70;62.20
24217;DHT22;12356;49.386;8.688;2022-08-01T06:28:36;22.70;61.70
24217;DHT22;12356;49.386;8.688;2022-08-01T06:31:07;22.70;61.60
24217;DHT22;12356;49.386;8.688;2022-08-01T06:33:40;22.80;62.20
24217;DHT22;12356;49.386;8.688;2022-08-01T06:36:12;22.80;61.40
24217;DHT22;12356;49.386;8.688;2022-08-01T06:38:42;22.80;61.70
24217;DHT22;12356;49.386;8.688;2022-08-01T06:41:13;22.80;61.80
24217;DHT22;12356;49.386;8.688;2022-08-01T06:43:44;22.80;61.70
24217;DHT22;12356;49.386;8.688;2022-08-01T06:46:14;22.80;62.00
24217;DHT22;12356;49.386;8.688;2022-08-01T06:48:45;22.80;61.90
24217;DHT22;12356;49.386;8.688;2022-08-01T06:51:15;22.80;61.50
24217;DHT22;12356;49.386;8.688;2022-08-01T06:53:50;22.90;61.20
24217;DHT22;12356;49.386;8.688;2022-08-01T06:56:20;23.00;61.30
24217;DHT22;12356;49.386;8.688;2022-08-01T06:58:51;23.00;61.50
24217;DHT22;12356;49.386;8.688;2022-08-01T07:01:22;22.90;63.30
24217;DHT22;12356;49.386;8.688;2022-08-01T07:03:52;22.90;61.90
24217;DHT22;12356;49.386;8.688;2022-08-01T07:06:24;22.90;62.70
24217;DHT22;12356;49.386;8.688;2022-08-01T07:08:55;22.90;62.20
24217;DHT22;12356;49.386;8.688;2022-08-01T07:11:26;23.00;61.50
24217;DHT22;12356;49.386;8.688;2022-08-01T07:13:56;23.00;61.40
24217;DHT22;12356;49.386;8.688;2022-08-01T07:16:27;23.10;61.50
24217;DHT22;12356;49.386;8.688;2022-08-01T07:18:58;23.20;60.70
24217;DHT22;12356;49.386;8.688;2022-08-01T07:21:28;23.30;60.80
24217;DHT22;12356;49.386;8.688;2022-08-01T07:23:59;23.40;61.20
24217;DHT22;12356;49.386;8.688;2022-08-01T07:26:29;23.50;59.80
24217;DHT22;12356;49.386;8.688;2022-08-01T07:29:00;23.60;59.40
24217;DHT22;12356;49.386;8.688;2022-08-01T07:31:31;23.80;58.70
24217;DHT22;12356;49.386;8.688;2022-08-01T07:34:01;23.90;58.80
24217;DHT22;12356;49.386;8.688;2022-08-01T07:36:32;24.00;58.30
24217;DHT22;12356;49.386;8.688;2022-08-01T07:39:03;24.20;57.40
24217;DHT22;12356;49.386;8.688;2022-08-01T07:41:33;24.30;57.40
24217;DHT22;12356;49.386;8.688;2022-08-01T07:44:04;24.30;57.10
24217;DHT22;12356;49.386;8.688;2022-08-01T07:46:35;24.30;56.50
24217;DHT22;12356;49.386;8.688;2022-08-01T07:49:06;24.20;56.60
24217;DHT22;12356;49.386;8.688;2022-08-01T07:51:36;24.20;57.00
24217;DHT22;12356;49.386;8.688;2022-08-01T07:54:08;24.10;57.00
24217;DHT22;12356;49.386;8.688;2022-08-01T07:56:39;24.20;56.90
24217;DHT22;12356;49.386;8.688;2022-08-01T07:59:09;24.10;56.50
24217;DHT22;12356;49.386;8.688;2022-08-01T08:01:40;24.20;57.40
24217;DHT22;12356;49.386;8.688;2022-08-01T08:04:11;24.30;56.60
24217;DHT22;12356;49.386;8.688;2022-08-01T08:06:42;24.30;56.40
24217;DHT22;12356;49.386;8.688;2022-08-01T08:09:14;24.40;55.70
24217;DHT22;12356;49.386;8.688;2022-08-01T08:11:46;24.50;56.00
24217;DHT22;12356;49.386;8.688;2022-08-01T08:14:16;24.50;55.30
24217;DHT22;12356;49.386;8.688;2022-08-01T08:16:48;24.60;55.60
24217;DHT22;12356;49.386;8.688;2022-08-01T08:19:18;24.60;55.60
24217;DHT22;12356;49.386;8.688;2022-08-01T08:21:49;24.60;55.00
24217;DHT22;12356;49.386;8.688;2022-08-01T08:24:19;24.70;54.60
24217;DHT22;12356;49.386;8.688;2022-08-01T08:26:52;24.80;54.10
24217;DHT22;12356;49.386;8.688;2022-08-01T08:29:24;24.90;54.00
24217;DHT22;12356;49.386;8.688;2022-08-01T08:31:57;24.90;53.40
24217;DHT22;12356;49.386;8.688;2022-08-01T08:34:28;24.90;53.40
24217;DHT22;12356;49.386;8.688;2022-08-01T08:36:59;24.80;53.50
24217;DHT22;12356;49.386;8.688;2022-08-01T08:39:30;24.80;53.30
24217;DHT22;12356;49.386;8.688;2022-08-01T08:42:06;24.80;53.60
24217;DHT22;12356;49.386;8.688;2022-08-01T08:44:39;24.60;53.40
24217;DHT22;12356;49.386;8.688;2022-08-01T08:47:12;24.60;54.90
24217;DHT22;12356;49.386;8.688;2022-08-01T08:49:44;24.60;54.10
24217;DHT22;12356;49.386;8.688;2022-08-01T08:52:15;24.60;54.10
24217;DHT22;12356;49.386;8.688;2022-08-01T08:54:49;24.60;54.50
24217;DHT22;12356;49.386;8.688;2022-08-01T08:57:20;24.60;54.10
24217;DHT22;12356;49.386;8.688;2022-08-01T08:59:51;24.70;54.20
24217;DHT22;12356;49.386;8.688;2022-08-01T09:02:23;24.70;53.90
24217;DHT22;12356;49.386;8.688;2022-08-01T09:04:53;24.80;53.30
24217;DHT22;12356;49.386;8.688;2022-08-01T09:07:24;24.80;53.30
24217;DHT22;12356;49.386;8.688;2022-08-01T09:09:56;24.80;53.30
24217;DHT22;12356;49.386;8.688;2022-08-01T09:12:27;24.80;52.60
24217;DHT22;12356;49.386;8.688;2022-08-01T09:14:58;24.80;52.60
24217;DHT22;12356;49.386;8.688;2022-08-01T09:17:39;24.80;51.70
24217;DHT22;12356;49.386;8.688;2022-08-01T09:20:23;24.70;51.70
24217;DHT22;12356;49.386;8.688;2022-08-01T09:22:54;24.80;51.80
24217;DHT22;12356;49.386;8.688;2022-08-01T09:25:25;24.80;51.20
24217;DHT22;12356;49.386;8.688;2022-08-01T09:28:03;24.90;51.80
24217;DHT22;12356;49.386;8.688;2022-08-01T09:30:38;25.00;52.00
24217;DHT22;12356;49.386;8.688;2022-08-01T09:33:09;25.00;51.50
24217;DHT22;12356;49.386;8.688;2022-08-01T09:35:40;25.00;51.80
24217;DHT22;12356;49.386;8.688;2022-08-01T09:40:54;25.00;53.50
24217;DHT22;12356;49.386;8.688;2022-08-01T09:43:27;25.00;52.10
24217;DHT22;12356;49.386;8.688;2022-08-01T09:46:00;25.00;52.00
24217;DHT22;12356;49.386;8.688;2022-08-01T09:48:34;25.00;52.10
24217;DHT22;12356;49.386;8.688;2022-08-01T09:51:07;25.00;52.10
24217;DHT22;12356;49.386;8.688;2022-08-01T09:53:46;25.00;52.70
24217;DHT22;12356;49.386;8.688;2022-08-01T09:56:17;25.00;52.40
24217;DHT22;12356;49.386;8.688;2022-08-01T09:58:57;25.00;53.50
24217;DHT22;12356;49.386;8.688;2022-08-01T10:01:50;25.00;52.40
24217;DHT22;12356;49.386;8.688;2022-08-01T10:04:21;25.10;53.10
24217;DHT22;12356;49.386;8.688;2022-08-01T10:07:04;25.20;53.00
24217;DHT22;12356;49.386;8.688;2022-08-01T10:09:35;25.30;51.80
24217;DHT22;12356;49.386;8.688;2022-08-01T10:12:09;25.40;51.50
24217;DHT22;12356;49.386;8.688;2022-08-01T10:14:42;25.40;50.30
24217;DHT22;12356;49.386;8.688;2022-08-01T10:17:14;25.50;50.00
24217;DHT22;12356;49.386;8.688;2022-08-01T10:19:46;25.50;49.80
24217;DHT22;12356;49.386;8.688;2022-08-01T10:22:23;25.50;49.20
24217;DHT22;12356;49.386;8.688;2022-08-01T10:24:55;25.50;49.00
24217;DHT22;12356;49.386;8.688;2022-08-01T10:27:26;25.50;49.00
24217;DHT22;12356;49.386;8.688;2022-08-01T10:29:59;25.50;48.70
24217;DHT22;12356;49.386;8.688;2022-08-01T10:32:38;25.50;48.60
24217;DHT22;12356;49.386;8.688;2022-08-01T10:35:10;25.40;48.90
24217;DHT22;12356;49.386;8.688;2022-08-01T10:37:46;25.40;48.90
24217;DHT22;12356;49.386;8.688;2022-08-01T10:40:17;25.40;49.10
24217;DHT22;12356;49.386;8.688;2022-08-01T10:42:50;25.50;49.30
24217;DHT22;12356;49.386;8.688;2022-08-01T10:45:21;25.60;48.80
24217;DHT22;12356;49.386;8.688;2022-08-01T10:48:02;25.60;48.90
24217;DHT22;12356;49.386;8.688;2022-08-01T10:50:40;25.60;48.50
24217;DHT22;12356;49.386;8.688;2022-08-01T10:53:13;25.70;48.10
24217;DHT22;12356;49.386;8.688;2022-08-01T10:58:38;25.70;47.70
24217;DHT22;12356;49.386;8.688;2022-08-01T11:01:25;25.80;48.10
24217;DHT22;12356;49.386;8.688;2022-08-01T11:04:13;25.70;48.30
24217;DHT22;12356;49.386;8.688;2022-08-01T11:06:52;25.70;48.90
24217;DHT22;12356;49.386;8.688;2022-08-01T11:09:28;25.70;48.60
24217;DHT22;12356;49.386;8.688;2022-08-01T11:14:31;25.80;49.00
24217;DHT22;12356;49.386;8.688;2022-08-01T11:17:31;25.90;48.50
24217;DHT22;12356;49.386;8.688;2022-08-01T11:20:15;26.00;48.10
24217;DHT22;12356;49.386;8.688;2022-08-01T11:33:17;26.20;45.90
24217;DHT22;12356;49.386;8.688;2022-08-01T11:38:41;26.20;47.30
24217;DHT22;12356;49.386;8.688;2022-08-01T11:46:48;26.30;47.30
24217;DHT22;12356;49.386;8.688;2022-08-01T11:52:10;26.30;47.40
24217;DHT22;12356;49.386;8.688;2022-08-01T11:54:48;26.40;46.80
24217;DHT22;12356;49.386;8.688;2022-08-01T11:57:30;26.40;46.40
24217;DHT22;12356;49.386;8.688;2022-08-01T12:02:41;26.40;46.40
24217;DHT22;12356;49.386;8.688;2022-08-01T12:05:14;26.50;46.10
24217;DHT22;12356;49.386;8.688;2022-08-01T12:07:50;26.60;46.70
24217;DHT22;12356;49.386;8.688;2022-08-01T12:10:25;26.60;45.80
24217;DHT22;12356;49.386;8.688;2022-08-01T12:13:01;26.60;45.30
24217;DHT22;12356;49.386;8.688;2022-08-01T12:15:34;26.60;46.30
24217;DHT22;12356;49.386;8.688;2022-08-01T12:18:06;26.60;45.50
24217;DHT22;12356;49.386;8.688;2022-08-01T12:20:39;26.60;45.00
24217;DHT22;12356;49.386;8.688;2022-08-01T12:23:13;26.60;44.60
24217;DHT22;12356;49.386;8.688;2022-08-01T12:25:44;26.70;44.90
24217;DHT22;12356;49.386;8.688;2022-08-01T12:28:21;26.70;45.60
24217;DHT22;12356;49.386;8.688;2022-08-01T12:30:53;26.80;45.80
24217;DHT22;12356;49.386;8.688;2022-08-01T12:33:23;26.90;43.80
24217;DHT22;12356;49.386;8.688;2022-08-01T12:35:55;26.90;43.10
24217;DHT22;12356;49.386;8.688;2022-08-01T12:38:26;26.90;42.90
24217;DHT22;12356;49.386;8.688;2022-08-01T12:40:58;26.90;43.70
24217;DHT22;12356;49.386;8.688;2022-08-01T12:43:31;26.90;44.80
24217;DHT22;12356;49.386;8.688;2022-08-01T12:46:02;26.80;45.10
24217;DHT22;12356;49.386;8.688;2022-08-01T12:48:33;26.90;43.30
24217;DHT22;12356;49.386;8.688;2022-08-01T12:51:04;26.90;42.60
24217;DHT22;12356;49.386;8.688;2022-08-01T12:53:35;26.90;42.60
24217;DHT22;12356;49.386;8.688;2022-08-01T12:56:05;26.90;41.10
24217;DHT22;12356;49.386;8.688;2022-08-01T12:58:36;26.90;41.80
24217;DHT22;12356;49.386;8.688;2022-08-01T13:01:11;26.80;42.00
24217;DHT22;12356;49.386;8.688;2022-08-01T13:03:57;26.80;43.10
24217;DHT22;12356;49.386;8.688;2022-08-01T13:06:29;26.80;43.50
24217;DHT22;12356;49.386;8.688;2022-08-01T13:09:09;26.90;42.40
24217;DHT22;12356;49.386;8.688;2022-08-01T13:11:44;27.00;42.70
24217;DHT22;12356;49.386;8.688;2022-08-01T13:14:28;27.00;42.70
24217;DHT22;12356;49.386;8.688;2022-08-01T13:16:59;26.90;41.80
24217;DHT22;12356;49.386;8.688;2022-08-01T13:19:43;26.90;41.60
24217;DHT22;12356;49.386;8.688;2022-08-01T13:22:14;26.80;42.20
24217;DHT22;12356;49.386;8.688;2022-08-01T13:24:44;26.80;42.50
24217;DHT22;12356;49.386;8.688;2022-08-01T13:27:22;26.80;41.90
24217;DHT22;12356;49.386;8.688;2022-08-01T13:30:19;26.80;42.40
24217;DHT22;12356;49.386;8.688;2022-08-01T13:32:59;26.80;42.80
24217;DHT22;12356;49.386;8.688;2022-08-01T13:35:30;26.80;42.40
24217;DHT22;12356;49.386;8.688;2022-08-01T13:38:01;26.80;43.30
24217;DHT22;12356;49.386;8.688;2022-08-01T13:40:32;26.70;42.70
24217;DHT22;12356;49.386;8.688;2022-08-01T13:43:02;26.70;42.00
24217;DHT22;12356;49.386;8.688;2022-08-01T13:45:34;26.70;42.20
24217;DHT22;12356;49.386;8.688;2022-08-01T13:48:05;26.80;42.40
24217;DHT22;12356;49.386;8.688;2022-08-01T13:50:36;26.90;42.30
24217;DHT22;12356;49.386;8.688;2022-08-01T13:53:06;27.00;41.90
24217;DHT22;12356;49.386;8.688;2022-08-01T13:55:37;27.10;41.70
24217;DHT22;12356;49.386;8.688;2022-08-01T13:58:08;27.10;40.90
24217;DHT22;12356;49.386;8.688;2022-08-01T14:00:38;27.10;40.70
24217;DHT22;12356;49.386;8.688;2022-08-01T14:03:09;27.10;40.00
24217;DHT22;12356;49.386;8.688;2022-08-01T14:05:40;27.10;40.70
24217;DHT22;12356;49.386;8.688;2022-08-01T14:08:12;27.10;40.60
24217;DHT22;12356;49.386;8.688;2022-08-01T14:10:42;27.20;41.50
24217;DHT22;12356;49.386;8.688;2022-08-01T14:13:13;27.20;39.50
24217;DHT22;12356;49.386;8.688;2022-08-01T14:15:44;27.20;38.70
24217;DHT22;12356;49.386;8.688;2022-08-01T14:18:15;27.20;38.80
24217;DHT22;12356;49.386;8.688;2022-08-01T14:20:46;27.20;39.20
24217;DHT22;12356;49.386;8.688;2022-08-01T14:23:16;27.20;39.90
24217;DHT22;12356;49.386;8.688;2022-08-01T14:25:47;27.20;40.00
24217;DHT22;12356;49.386;8.688;2022-08-01T14:28:18;27.10;40.20
24217;DHT22;12356;49.386;8.688;2022-08-01T14:30:49;27.10;40.60
24217;DHT22;12356;49.386;8.688;2022-08-01T14:33:19;27.10;39.80
24217;DHT22;12356;49.386;8.688;2022-08-01T14:35:50;27.20;39.90
24217;DHT22;12356;49.386;8.688;2022-08-01T14:38:21;27.20;39.80
24217;DHT22;12356;49.386;8.688;2022-08-01T14:40:51;27.30;40.00
24217;DHT22;12356;49.386;8.688;2022-08-01T14:43:23;27.30;39.60
24217;DHT22;12356;49.386;8.688;2022-08-01T14:45:53;27.40;40.00
24217;DHT22;12356;49.386;8.688;2022-08-01T14:48:25;27.40;40.00
24217;DHT22;12356;49.386;8.688;2022-08-01T14:50:56;27.30;40.80
24217;DHT22;12356;49.386;8.688;2022-08-01T14:53:27;27.30;40.50
24217;DHT22;12356;49.386;8.688;2022-08-01T14:55:57;27.20;39.90
24217;DHT22;12356;49.386;8.688;2022-08-01T14:58:28;27.20;39.90
24217;DHT22;12356;49.386;8.688;2022-08-01T15:00:58;27.10;39.90
24217;DHT22;12356;49.386;8.688;2022-08-01T15:03:29;27.10;39.80
24217;DHT22;12356;49.386;8.688;2022-08-01T15:06:02;27.10;40.60
24217;DHT22;12356;49.386;8.688;2022-08-01T15:08:32;27.10;40.90
24217;DHT22;12356;49.386;8.688;2022-08-01T15:11:03;27.20;40.70
24217;DHT22;12356;49.386;8.688;2022-08-01T15:13:34;27.10;40.90
24217;DHT22;12356;49.386;8.688;2022-08-01T15:16:04;27.10;41.10
24217;DHT22;12356;49.386;8.688;2022-08-01T15:18:35;27.10;41.60
24217;DHT22;12356;49.386;8.688;2022-08-01T15:21:06;27.00;41.10
24217;DHT22;12356;49.386;8.688;2022-08-01T15:23:36;27.00;40.60
24217;DHT22;12356;49.386;8.688;2022-08-01T15:26:07;27.00;40.20
24217;DHT22;12356;49.386;8.688;2022-08-01T15:28:43;26.90;40.90
24217;DHT22;12356;49.386;8.688;2022-08-01T15:31:14;26.90;41.30
24217;DHT22;12356;49.386;8.688;2022-08-01T15:33:45;26.90;41.30
24217;DHT22;12356;49.386;8.688;2022-08-01T15:36:15;26.90;39.90
24217;DHT22;12356;49.386;8.688;2022-08-01T15:38:46;26.90;41.00
24217;DHT22;12356;49.386;8.688;2022-08-01T15:41:17;26.90;39.90
24217;DHT22;12356;49.386;8.688;2022-08-01T15:43:47;27.00;40.50
24217;DHT22;12356;49.386;8.688;2022-08-01T15:46:18;26.90;39.70
24217;DHT22;12356;49.386;8.688;2022-08-01T15:48:49;26.90;40.40
24217;DHT22;12356;49.386;8.688;2022-08-01T15:51:19;26.90;39.70
24217;DHT22;12356;49.386;8.688;2022-08-01T15:53:50;26.90;41.10
24217;DHT22;12356;49.386;8.688;2022-08-01T15:56:21;26.90;41.80
24217;DHT22;12356;49.386;8.688;2022-08-01T15:58:51;26.90;40.40
24217;DHT22;12356;49.386;8.688;2022-08-01T16:01:22;26.90;39.70
24217;DHT22;12356;49.386;8.688;2022-08-01T16:03:53;26.90;41.10
24217;DHT22;12356;49.386;8.688;2022-08-01T16:06:24;26.90;40.20
24217;DHT22;12356;49.386;8.688;2022-08-01T16:08:55;26.90;38.70
24217;DHT22;12356;49.386;8.688;2022-08-01T16:11:26;26.80;39.10
24217;DHT22;12356;49.386;8.688;2022-08-01T16:13:57;26.80;40.90
24217;DHT22;12356;49.386;8.688;2022-08-01T16:16:28;26.80;41.00
24217;DHT22;12356;49.386;8.688;2022-08-01T16:18:58;26.80;39.60
24217;DHT22;12356;49.386;8.688;2022-08-01T16:21:29;26.80;39.60
24217;DHT22;12356;49.386;8.688;2022-08-01T16:24:00;26.80;39.60
24217;DHT22;12356;49.386;8.688;2022-08-01T16:26:31;26.80;39.60
24217;DHT22;12356;49.386;8.688;2022-08-01T16:29:01;26.80;39.60
24217;DHT22;12356;49.386;8.688;2022-08-01T16:31:32;26.80;40.40
24217;DHT22;12356;49.386;8.688;2022-08-01T16:34:03;26.70;40.80
24217;DHT22;12356;49.386;8.688;2022-08-01T16:36:33;26.70;39.50
24217;DHT22;12356;49.386;8.688;2022-08-01T16:39:04;26.70;39.60
24217;DHT22;12356;49.386;8.688;2022-08-01T16:41:37;26.70;39.30
24217;DHT22;12356;49.386;8.688;2022-08-01T16:44:07;26.70;39.60